createdAt,value
2022-10-05T00:00:23.277Z,5.39
2022-10-05T00:02:52.515Z,5.37
2022-10-05T00:05:32.007Z,5.31
2022-10-05T00:08:14.201Z,5.30
2022-10-05T00:10:42.529Z,5.34
2022-10-05T00:13:27.254Z,5.38
2022-10-05T00:16:04.941Z,5.36
2022-10-05T00:18:32.745Z,5.34
2022-10-05T00:21:00.157Z,5.33
2022-10-05T00:23:31.760Z,5.31
2022-10-05T00:26:32.163Z,5.30
2022-10-05T00:28:58.975Z,5.29
2022-10-05T00:31:31.041Z,5.28
2022-10-05T00:33:58.093Z,5.28
2022-10-05T00:36:26.297Z,5.26
2022-10-05T00:38:54.215Z,5.31
2022-10-05T00:41:59.126Z,5.29
2022-10-05T00:44:38.567Z,5.30
2022-10-05T00:47:08.011Z,5.29
2022-10-05T00:50:08.277Z,5.33
2022-10-05T00:52:46.729Z,5.30
2022-10-05T00:55:19.519Z,5.28
2022-10-05T00:57:55.258Z,5.27
2022-10-05T01:00:26.305Z,5.28
2022-10-05T01:03:06.639Z,5.28
2022-10-05T01:05:47.888Z,5.28
2022-10-05T01:08:30.657Z,5.28
2022-10-05T01:11:12.604Z,5.25
2022-10-05T01:13:55.398Z,5.26
2022-10-05T01:16:54.542Z,5.25
2022-10-05T01:19:30.020Z,5.23
2022-10-05T01:22:35.766Z,5.22
2022-10-05T01:25:18.941Z,5.18
2022-10-05T01:28:05.860Z,5.21
2022-10-05T01:30:42.901Z,5.16
2022-10-05T01:33:27.911Z,5.12
2022-10-05T01:36:33.132Z,5.09
2022-10-05T01:39:14.149Z,5.05
2022-10-05T01:42:08.069Z,5.03
2022-10-05T01:44:57.804Z,5.02
2022-10-05T01:47:37.148Z,5.01
2022-10-05T01:50:07.123Z,4.97
2022-10-05T01:52:47.448Z,4.97
2022-10-05T01:55:39.231Z,4.98
2022-10-05T01:58:36.484Z,4.98
2022-10-05T02:01:35.266Z,4.97
2022-10-05T02:04:43.365Z,4.95
2022-10-05T02:07:16.808Z,4.96
2022-10-05T02:09:59.218Z,4.89
2022-10-05T02:12:29.469Z,4.87
2022-10-05T02:15:02.454Z,4.83
2022-10-05T02:17:59.295Z,4.83
2022-10-05T02:20:30.201Z,4.85
2022-10-05T02:23:12.668Z,4.81
2022-10-05T02:25:42.878Z,4.81
2022-10-05T02:28:43.567Z,4.80
2022-10-05T02:31:22.590Z,4.78
2022-10-05T02:33:49.392Z,4.78
2022-10-05T02:36:19.915Z,4.78
2022-10-05T02:39:18.288Z,4.78
2022-10-05T02:42:02.482Z,4.79
2022-10-05T02:44:34.912Z,4.76
2022-10-05T02:47:13.507Z,4.77
2022-10-05T02:50:07.978Z,4.79
2022-10-05T02:53:01.686Z,4.79
2022-10-05T02:55:35.669Z,4.82
2022-10-05T02:58:02.252Z,4.81
2022-10-05T03:00:34.397Z,4.79
2022-10-05T03:03:19.416Z,4.76
2022-10-05T03:05:53.334Z,4.78
2022-10-05T03:08:27.071Z,4.78
2022-10-05T03:11:27.617Z,4.75
2022-10-05T03:14:09.634Z,4.70
2022-10-05T03:16:55.489Z,4.69
2022-10-05T03:19:43.560Z,4.67
2022-10-05T03:22:50.489Z,4.69
2022-10-05T03:25:38.363Z,4.73
2022-10-05T03:28:23.661Z,4.68
2022-10-05T03:31:03.097Z,4.67
2022-10-05T03:33:53.314Z,4.63
2022-10-05T03:36:42.794Z,4.68
2022-10-05T03:39:27.096Z,4.64
2022-10-05T03:42:21.250Z,4.63
2022-10-05T03:45:06.666Z,4.33
2022-10-05T03:48:01.670Z,4.24
2022-10-05T03:50:55.519Z,4.19
2022-10-05T03:53:25.515Z,4.08
2022-10-05T03:55:59.772Z,4.08
2022-10-05T03:58:34.753Z,4.09
2022-10-05T04:01:07.490Z,4.02
2022-10-05T04:03:40.567Z,4.03
2022-10-05T04:06:16.163Z,4.14
2022-10-05T04:08:57.476Z,4.20
2022-10-05T04:11:34.376Z,4.24
2022-10-05T04:14:07.435Z,4.26
2022-10-05T04:16:41.334Z,4.25
2022-10-05T04:19:19.382Z,4.22
2022-10-05T04:22:07.847Z,4.08
2022-10-05T04:24:53.324Z,4.10
2022-10-05T04:27:24.391Z,4.03
2022-10-05T04:30:02.558Z,4.04
2022-10-05T04:32:43.959Z,4.16
2022-10-05T04:35:26.174Z,4.18
2022-10-05T04:37:55.830Z,4.14
2022-10-05T04:40:25.423Z,4.14
2022-10-05T04:43:17.826Z,4.19
2022-10-05T04:45:56.209Z,4.18
2022-10-05T04:48:31.989Z,4.24
2022-10-05T04:51:40.067Z,4.19
2022-10-05T04:54:20.882Z,4.20
2022-10-05T04:57:01.781Z,4.19
2022-10-05T04:59:54.816Z,4.24
2022-10-05T05:02:39.845Z,4.24
2022-10-05T05:05:23.324Z,4.18
2022-10-05T05:08:16.991Z,4.15
2022-10-05T05:10:52.794Z,4.12
2022-10-05T05:13:43.340Z,4.16
2022-10-05T05:16:28.278Z,4.20
2022-10-05T05:19:07.018Z,4.20
2022-10-05T05:21:58.280Z,4.25
2022-10-05T05:24:32.298Z,4.26
2022-10-05T05:27:13.236Z,4.30
2022-10-05T05:30:07.718Z,4.34
2022-10-05T05:32:52.552Z,4.35
2022-10-05T05:35:41.145Z,4.35
2022-10-05T05:38:13.501Z,4.42
2022-10-05T05:40:59.607Z,4.39
2022-10-05T05:43:41.744Z,4.44
2022-10-05T05:46:58.281Z,4.48
2022-10-05T05:49:27.811Z,4.53
2022-10-05T05:52:04.977Z,4.53
2022-10-05T05:54:37.402Z,4.54
2022-10-05T05:57:25.459Z,4.59
2022-10-05T05:59:56.723Z,4.63
2022-10-05T06:02:43.022Z,4.77
2022-10-05T06:05:27.335Z,5.11
2022-10-05T06:07:56.003Z,5.72
2022-10-05T06:10:45.337Z,6.26
2022-10-05T06:13:19.343Z,6.81
2022-10-05T06:15:54.852Z,7.16
2022-10-05T06:18:23.053Z,7.57
2022-10-05T06:20:56.406Z,7.66
2022-10-05T06:23:34.598Z,7.77
2022-10-05T06:26:22.665Z,7.88
2022-10-05T06:29:00.568Z,8.07
2022-10-05T06:31:37.294Z,8.41
2022-10-05T06:34:33.232Z,8.36
2022-10-05T06:37:05.933Z,8.59
2022-10-05T06:40:00.785Z,8.73
2022-10-05T06:42:30.446Z,8.87
2022-10-05T06:45:27.867Z,9.14
2022-10-05T06:48:15.245Z,9.02
2022-10-05T06:50:46.334Z,9.31
2022-10-05T06:53:31.538Z,9.50
2022-10-05T06:55:58.012Z,9.72
2022-10-05T06:58:48.280Z,9.70
2022-10-05T07:01:24.433Z,9.82
2022-10-05T07:04:03.053Z,10.07
2022-10-05T07:06:55.237Z,10.39
2022-10-05T07:09:52.823Z,10.51
2022-10-05T07:12:28.398Z,10.85
2022-10-05T07:15:19.669Z,11.10
2022-10-05T07:17:56.876Z,11.29
2022-10-05T07:20:49.354Z,11.40
2022-10-05T07:23:22.325Z,11.60
2022-10-05T07:26:12.514Z,11.92
2022-10-05T07:29:06.879Z,12.11
2022-10-05T07:31:41.526Z,11.86
2022-10-05T07:34:14.269Z,11.79
2022-10-05T07:37:08.261Z,11.73
2022-10-05T07:39:59.740Z,11.79
2022-10-05T07:42:30.471Z,11.93
2022-10-05T07:45:18.449Z,12.16
2022-10-05T07:47:55.238Z,12.46
2022-10-05T07:50:47.398Z,12.69
2022-10-05T07:53:31.626Z,12.96
2022-10-05T07:56:14.820Z,13.08
2022-10-05T07:58:48.433Z,13.41
2022-10-05T08:01:22.136Z,13.27
2022-10-05T08:04:17.549Z,13.56
2022-10-05T08:06:52.903Z,13.59
2022-10-05T08:09:37.831Z,13.96
2022-10-05T08:12:33.354Z,14.18
2022-10-05T08:15:12.110Z,14.29
2022-10-05T08:17:43.713Z,14.49
2022-10-05T08:20:22.692Z,14.46
2022-10-05T08:22:59.687Z,14.28
2022-10-05T08:25:36.530Z,14.45
2022-10-05T08:28:10.119Z,14.35
2022-10-05T08:30:51.864Z,14.23
2022-10-05T08:33:20.868Z,14.31
2022-10-05T08:36:00.432Z,14.19
2022-10-05T08:38:33.492Z,14.20
2022-10-05T08:45:42.474Z,14.71
2022-10-05T08:48:33.692Z,14.87
2022-10-05T08:51:15.501Z,15.02
2022-10-05T08:54:13.368Z,15.03
2022-10-05T08:56:48.727Z,15.34
2022-10-05T08:59:43.216Z,15.54
2022-10-05T09:02:24.947Z,15.57
2022-10-05T09:05:03.103Z,15.83
2022-10-05T09:07:29.720Z,15.91
2022-10-05T09:10:14.874Z,16.07
2022-10-05T09:13:00.216Z,16.03
2022-10-05T09:16:00.558Z,16.28
2022-10-05T09:18:49.931Z,16.35
2022-10-05T09:21:22.734Z,16.56
2022-10-05T09:24:04.738Z,16.47
2022-10-05T09:26:53.506Z,16.69
2022-10-05T09:29:35.460Z,16.56
2022-10-05T09:32:40.085Z,16.45
2022-10-05T09:35:17.638Z,16.41
2022-10-05T09:37:59.067Z,16.35
2022-10-05T09:40:45.166Z,16.33
2022-10-05T09:43:26.769Z,16.41
2022-10-05T09:45:59.390Z,16.60
2022-10-05T09:48:37.918Z,16.67
2022-10-05T09:51:14.119Z,16.78
2022-10-05T09:54:05.620Z,16.95
2022-10-05T09:56:51.837Z,16.70
2022-10-05T09:59:21.234Z,16.70
2022-10-05T10:02:18.932Z,16.72
2022-10-05T10:05:22.959Z,16.94
2022-10-05T10:08:04.802Z,17.23
2022-10-05T10:10:58.307Z,17.17
2022-10-05T10:13:46.789Z,17.43
2022-10-05T10:16:49.672Z,17.52
2022-10-05T10:19:31.195Z,17.53
2022-10-05T10:22:28.559Z,17.57
2022-10-05T10:25:13.578Z,17.71
2022-10-05T10:27:55.716Z,17.73
2022-10-05T10:30:36.426Z,17.85
2022-10-05T10:33:13.834Z,17.93
2022-10-05T10:35:46.971Z,17.70
2022-10-05T10:38:32.225Z,17.67
2022-10-05T10:41:32.512Z,17.66
2022-10-05T10:44:14.088Z,17.65
2022-10-05T10:47:10.161Z,17.85
2022-10-05T10:50:14.299Z,17.99
2022-10-05T10:53:18.446Z,17.91
2022-10-05T10:55:51.045Z,17.80
2022-10-05T10:58:51.865Z,17.77
2022-10-05T11:01:41.908Z,17.73
2022-10-05T11:04:27.397Z,17.66
2022-10-05T11:07:15.092Z,17.68
2022-10-05T11:10:00.592Z,17.75
2022-10-05T11:12:45.131Z,17.71
2022-10-05T11:15:30.634Z,17.83
2022-10-05T11:18:05.550Z,17.75
2022-10-05T11:20:50.746Z,17.68
2022-10-05T11:23:23.194Z,17.71
2022-10-05T11:26:14.694Z,17.52
2022-10-05T11:28:49.489Z,17.62
2022-10-05T11:31:34.452Z,17.70
2022-10-05T11:34:13.213Z,17.65
2022-10-05T11:37:01.518Z,17.78
2022-10-05T11:39:44.216Z,17.74
2022-10-05T11:42:33.840Z,17.78
2022-10-05T11:45:21.864Z,17.76
2022-10-05T11:48:03.837Z,17.56
2022-10-05T11:50:39.818Z,17.53
2022-10-05T11:53:27.151Z,17.50
2022-10-05T11:55:57.813Z,17.46
2022-10-05T11:59:19.167Z,17.37
2022-10-05T12:01:56.700Z,17.51
2022-10-05T12:04:33.375Z,17.65
2022-10-05T12:07:21.149Z,17.58
2022-10-05T12:10:17.518Z,17.57
2022-10-05T12:13:05.569Z,17.40
2022-10-05T12:15:56.901Z,17.43
2022-10-05T12:18:49.392Z,17.26
2022-10-05T12:21:22.844Z,17.28
2022-10-05T12:24:12.926Z,17.33
2022-10-05T12:26:58.540Z,17.38
2022-10-05T12:29:34.739Z,17.37
2022-10-05T12:32:11.749Z,17.30
2022-10-05T12:35:05.277Z,17.24
2022-10-05T12:37:39.413Z,17.28
2022-10-05T12:40:16.927Z,17.33
2022-10-05T12:43:03.497Z,17.40
2022-10-05T12:45:55.150Z,17.29
2022-10-05T12:48:49.283Z,17.24
2022-10-05T12:51:28.714Z,17.19
2022-10-05T12:54:06.568Z,17.10
2022-10-05T12:56:42.210Z,17.12
2022-10-05T12:59:14.726Z,17.17
2022-10-05T13:01:50.612Z,17.11
2022-10-05T13:04:40.853Z,17.07
2022-10-05T13:07:32.020Z,17.08
2022-10-05T13:10:37.711Z,17.01
2022-10-05T13:13:21.413Z,16.95
2022-10-05T13:16:23.412Z,16.92
2022-10-05T13:19:05.937Z,16.94
2022-10-05T13:21:58.840Z,16.92
2022-10-05T13:24:37.966Z,16.95
2022-10-05T13:27:23.544Z,16.94
2022-10-05T13:29:58.906Z,16.86
2022-10-05T13:32:32.163Z,16.75
2022-10-05T13:35:17.665Z,16.73
2022-10-05T13:37:52.422Z,16.67
2022-10-05T13:40:37.650Z,16.59
2022-10-05T13:43:27.034Z,16.55
2022-10-05T13:46:07.525Z,16.65
2022-10-05T13:49:14.561Z,16.59
2022-10-05T13:51:47.235Z,16.54
2022-10-05T13:54:23.030Z,16.48
2022-10-05T13:57:06.490Z,16.45
2022-10-05T13:59:48.255Z,16.56
2022-10-05T14:02:22.985Z,16.58
2022-10-05T14:04:58.798Z,16.59
2022-10-05T14:07:48.116Z,16.56
2022-10-05T14:10:28.458Z,16.53
2022-10-05T14:12:55.532Z,16.49
2022-10-05T14:15:29.024Z,16.50
2022-10-05T14:17:55.706Z,16.49
2022-10-05T14:20:31.623Z,16.42
2022-10-05T14:23:01.798Z,16.39
2022-10-05T14:25:45.748Z,16.37
2022-10-05T14:28:12.294Z,16.35
2022-10-05T14:30:39.945Z,16.33
2022-10-05T14:33:06.525Z,16.31
2022-10-05T14:35:51.441Z,16.28
2022-10-05T14:38:30.454Z,16.28
2022-10-05T14:41:16.195Z,16.21
2022-10-05T14:44:26.276Z,16.17
2022-10-05T14:47:02.790Z,16.15
2022-10-05T14:49:36.129Z,16.11
2022-10-05T14:52:33.127Z,16.09
2022-10-05T14:55:24.298Z,16.07
2022-10-05T14:58:10.437Z,15.95
2022-10-05T15:00:55.582Z,15.94
2022-10-05T15:03:39.437Z,15.88
2022-10-05T15:06:16.004Z,15.81
2022-10-05T15:09:02.588Z,15.74
2022-10-05T15:11:47.087Z,15.65
2022-10-05T15:14:24.259Z,15.61
2022-10-05T15:16:54.410Z,15.55
2022-10-05T15:19:31.319Z,15.45
2022-10-05T15:22:01.102Z,15.37
2022-10-05T15:24:41.252Z,15.30
2022-10-05T15:27:25.401Z,15.28
2022-10-05T15:30:04.560Z,15.21
2022-10-05T15:32:42.990Z,15.16
2022-10-05T15:35:33.124Z,15.06
2022-10-05T15:38:11.930Z,15.01
2022-10-05T15:40:51.830Z,14.96
2022-10-05T15:43:22.002Z,14.90
2022-10-05T15:46:14.070Z,14.85
2022-10-05T15:48:49.886Z,14.79
2022-10-05T15:51:51.678Z,14.71
2022-10-05T15:54:41.979Z,14.63
2022-10-05T15:57:25.184Z,14.58
2022-10-05T16:00:04.357Z,14.47
2022-10-05T16:03:01.959Z,14.28
2022-10-05T16:05:56.463Z,14.22
2022-10-05T16:08:53.721Z,14.20
2022-10-05T16:11:32.947Z,14.19
2022-10-05T16:14:00.037Z,14.14
2022-10-05T16:16:35.129Z,14.12
2022-10-05T16:19:38.828Z,13.97
2022-10-05T16:22:23.554Z,13.88
2022-10-05T16:24:58.035Z,13.77
2022-10-05T16:27:35.157Z,13.69
2022-10-05T16:30:18.366Z,13.61
2022-10-05T16:32:56.705Z,13.57
2022-10-05T16:35:29.255Z,13.54
2022-10-05T16:38:41.066Z,13.44
2022-10-05T16:41:23.969Z,13.32
2022-10-05T16:44:02.725Z,13.25
2022-10-05T16:46:59.488Z,13.21
2022-10-05T16:49:38.376Z,13.09
2022-10-05T16:52:10.296Z,13.00
2022-10-05T16:54:47.888Z,12.92
2022-10-05T16:57:22.045Z,12.84
2022-10-05T17:00:04.325Z,12.74
2022-10-05T17:02:36.882Z,12.69
2022-10-05T17:05:15.677Z,12.61
2022-10-05T17:07:59.475Z,12.52
2022-10-05T17:10:50.356Z,12.46
2022-10-05T17:13:43.482Z,12.39
2022-10-05T17:16:41.440Z,12.33
2022-10-05T17:19:15.257Z,12.26
2022-10-05T17:22:00.570Z,12.22
2022-10-05T17:24:49.434Z,12.19
2022-10-05T17:27:32.909Z,12.14
2022-10-05T17:30:20.082Z,12.10
2022-10-05T17:33:00.248Z,12.07
2022-10-05T17:35:51.930Z,12.05
2022-10-05T17:38:41.784Z,12.04
2022-10-05T17:41:22.065Z,12.04
2022-10-05T17:44:24.481Z,11.99
2022-10-05T17:46:56.856Z,11.96
2022-10-05T17:49:46.857Z,11.93
2022-10-05T17:52:45.227Z,11.91
2022-10-05T17:55:38.629Z,11.87
2022-10-05T17:58:23.989Z,11.82
2022-10-05T18:00:57.317Z,11.82
2022-10-05T18:03:43.633Z,11.80
2022-10-05T18:06:24.403Z,11.78
2022-10-05T18:09:20.900Z,11.76
2022-10-05T18:12:27.361Z,11.76
2022-10-05T18:15:08.868Z,11.71
2022-10-05T18:17:47.048Z,11.71
2022-10-05T18:20:27.121Z,11.70
2022-10-05T18:22:55.731Z,11.69
2022-10-05T18:25:52.615Z,11.67
2022-10-05T18:28:34.445Z,11.64
2022-10-05T18:31:10.100Z,11.62
2022-10-05T18:33:57.380Z,11.59
2022-10-05T18:37:01.929Z,11.57
2022-10-05T18:39:54.210Z,11.51
2022-10-05T18:42:50.549Z,11.50
2022-10-05T18:45:35.451Z,11.45
2022-10-05T18:48:30.607Z,11.42
2022-10-05T18:51:33.651Z,11.39
2022-10-05T18:54:44.826Z,11.37
2022-10-05T18:57:36.194Z,11.34
2022-10-05T19:00:16.487Z,11.33
2022-10-05T19:02:59.465Z,11.29
2022-10-05T19:05:48.399Z,11.29
2022-10-05T19:08:15.429Z,11.22
2022-10-05T19:10:52.008Z,11.19
2022-10-05T19:13:34.201Z,11.16
2022-10-05T19:16:15.825Z,11.17
2022-10-05T19:18:42.484Z,11.10
2022-10-05T19:21:24.719Z,11.11
2022-10-05T19:24:18.900Z,11.09
2022-10-05T19:27:11.747Z,11.07
2022-10-05T19:30:30.111Z,11.04
2022-10-05T19:33:26.252Z,11.01
2022-10-05T19:36:18.723Z,10.97
2022-10-05T19:39:00.524Z,10.92
2022-10-05T19:41:27.727Z,10.87
2022-10-05T19:44:15.435Z,10.84
2022-10-05T19:46:52.184Z,10.79
2022-10-05T19:49:43.252Z,10.75
2022-10-05T19:52:22.285Z,10.77
2022-10-05T19:55:02.317Z,10.73
2022-10-05T19:57:29.050Z,10.69
2022-10-05T19:59:58.495Z,10.65
2022-10-05T20:02:28.301Z,10.60
2022-10-05T20:05:06.635Z,10.59
2022-10-05T20:07:34.458Z,10.55
2022-10-05T20:10:29.412Z,10.51
2022-10-05T20:13:01.338Z,10.49
2022-10-05T20:15:49.510Z,10.47
2022-10-05T20:19:19.486Z,10.43
2022-10-05T20:21:50.582Z,10.39
2022-10-05T20:24:26.181Z,10.36
2022-10-05T20:27:07.229Z,10.33
2022-10-05T20:29:40.915Z,10.32
2022-10-05T20:32:12.152Z,10.31
2022-10-05T20:34:41.626Z,10.34
2022-10-05T20:37:09.725Z,10.26
2022-10-05T20:39:36.389Z,10.23
2022-10-05T20:42:03.854Z,10.19
2022-10-05T20:44:31.281Z,10.20
2022-10-05T20:46:58.730Z,10.17
2022-10-05T20:49:26.515Z,10.14
2022-10-05T20:51:55.771Z,10.10
2022-10-05T20:54:23.852Z,10.04
2022-10-05T20:56:51.520Z,10.01
2022-10-05T20:59:18.231Z,10.02
2022-10-05T21:01:50.959Z,10.03
2022-10-05T21:04:22.684Z,9.95
2022-10-05T21:06:49.893Z,9.94
2022-10-05T21:09:19.396Z,9.93
2022-10-05T21:11:47.367Z,9.89
2022-10-05T21:14:14.110Z,9.87
2022-10-05T21:16:41.379Z,9.89
2022-10-05T21:19:09.583Z,9.89
2022-10-05T21:21:40.661Z,9.85
2022-10-05T21:24:07.978Z,9.82
2022-10-05T21:26:34.702Z,9.79
2022-10-05T21:29:02.471Z,9.78
2022-10-05T21:31:29.680Z,9.75
2022-10-05T21:33:56.680Z,9.72
2022-10-05T21:36:24.749Z,9.74
2022-10-05T21:38:53.051Z,9.70
2022-10-05T21:41:20.537Z,9.68
2022-10-05T21:43:47.643Z,9.65
2022-10-05T21:46:20.409Z,9.64
2022-10-05T21:48:48.065Z,9.64
2022-10-05T21:51:18.945Z,9.59
2022-10-05T21:53:53.507Z,9.58
2022-10-05T21:56:22.510Z,9.57
2022-10-05T21:58:50.205Z,9.54
2022-10-05T22:01:22.435Z,9.52
2022-10-05T22:03:49.666Z,9.50
2022-10-05T22:06:16.369Z,9.47
2022-10-05T22:08:43.038Z,9.43
2022-10-05T22:11:17.770Z,9.38
2022-10-05T22:13:48.764Z,9.32
2022-10-05T22:16:17.313Z,9.34
2022-10-05T22:18:44.289Z,9.30
2022-10-05T22:21:13.183Z,9.31
2022-10-05T22:23:41.605Z,9.22
2022-10-05T22:26:10.643Z,9.20
2022-10-05T22:28:39.698Z,9.20
2022-10-05T22:31:08.503Z,9.20
2022-10-05T22:33:37.055Z,9.14
2022-10-05T22:36:04.829Z,9.14
2022-10-05T22:38:31.741Z,9.13
2022-10-05T22:40:58.805Z,9.12
2022-10-05T22:43:29.018Z,9.15
2022-10-05T22:45:56.219Z,9.13
2022-10-05T22:48:23.313Z,9.13
2022-10-05T22:50:50.011Z,9.10
2022-10-05T22:53:16.789Z,9.09
2022-10-05T22:55:43.480Z,9.11
2022-10-05T22:58:10.153Z,9.08
2022-10-05T23:00:57.039Z,9.13
2022-10-05T23:03:23.475Z,9.13
2022-10-05T23:05:56.931Z,9.09
2022-10-05T23:08:23.600Z,9.07
2022-10-05T23:10:50.273Z,9.05
2022-10-05T23:13:17.081Z,9.05
2022-10-05T23:15:44.975Z,9.03
2022-10-05T23:18:12.371Z,9.03
2022-10-05T23:20:40.267Z,9.02
2022-10-05T23:23:06.925Z,8.96
2022-10-05T23:25:33.671Z,8.92
2022-10-05T23:28:02.640Z,8.94
2022-10-05T23:30:29.679Z,8.96
2022-10-05T23:32:56.362Z,8.95
2022-10-05T23:35:23.105Z,8.90
2022-10-05T23:37:49.758Z,8.87
2022-10-05T23:40:16.491Z,8.85
2022-10-05T23:42:43.253Z,8.81
2022-10-05T23:45:11.578Z,8.79
2022-10-05T23:47:39.489Z,8.77
2022-10-05T23:50:07.923Z,8.75
2022-10-05T23:52:35.465Z,8.75
2022-10-05T23:55:03.622Z,8.70
2022-10-05T23:57:30.264Z,8.70
2022-10-05T23:59:56.925Z,8.71
